Time;durP1;ratioP1;P1;durP2;ratioP2;P2;SDS_P1;SDS_P2;PMS_P1;PMS_P2;Temp;Humidity;BMP_temperature;BMP_pressure;BME280_temperature;BME280_humidity;BME280_pressure;Samples;Min_cycle;Max_cycle;Signal;HPM_P1;HPM_P2
2022/04/29 00:02:02;;;;;;;0.73;0.73;;;6.10;99.90;;;;;;5092642;28;20194;-77
2022/04/29 00:04:51;;;;;;;0.70;0.70;;;6.00;99.90;;;;;;5094241;28;20204;-77
2022/04/29 00:07:16;;;;;;;0.70;0.70;;;5.90;99.90;;;;;;5094103;28;20190;-79
2022/04/29 00:09:42;;;;;;;0.80;0.80;;;5.90;99.90;;;;;;5077528;28;20210;-78
2022/04/29 00:12:08;;;;;;;0.70;0.70;;;5.80;99.90;;;;;;5075772;28;20808;-76
2022/04/29 00:14:38;;;;;;;0.80;0.80;;;5.70;99.90;;;;;;5076946;28;20190;-79
2022/04/29 00:17:16;;;;;;;0.70;0.70;;;5.70;99.90;;;;;;5075297;28;20192;-78
2022/04/29 00:19:43;;;;;;;0.80;0.80;;;5.70;99.90;;;;;;5076574;28;20186;-78
2022/04/29 00:22:09;;;;;;;0.70;0.70;;;5.80;99.90;;;;;;5077367;28;20187;-78
2022/04/29 00:24:34;;;;;;;0.77;0.77;;;5.80;99.90;;;;;;5076813;28;20174;-78
2022/04/29 00:27:28;;;;;;;0.77;0.77;;;5.80;99.90;;;;;;5076822;28;20208;-79
2022/04/29 00:29:57;;;;;;;0.70;0.70;;;5.80;99.90;;;;;;5076463;28;20769;-77
2022/04/29 00:32:24;;;;;;;0.80;0.80;;;5.70;99.90;;;;;;5076560;28;20218;-80
2022/04/29 00:34:49;;;;;;;0.80;0.80;;;5.70;99.90;;;;;;5076775;28;20213;-78
2022/04/29 00:37:16;;;;;;;0.70;0.70;;;5.70;99.90;;;;;;5077171;28;20269;-79
2022/04/29 00:39:41;;;;;;;0.80;0.80;;;5.70;99.90;;;;;;5076145;28;20175;-78
2022/04/29 00:42:15;;;;;;;0.70;0.70;;;5.50;99.90;;;;;;5076774;28;20205;-78
2022/04/29 00:44:41;;;;;;;0.80;0.80;;;5.60;99.90;;;;;;5077599;28;20259;-79
2022/04/29 00:47:10;;;;;;;0.80;0.80;;;5.60;99.90;;;;;;5077184;28;20170;-78
2022/04/29 00:49:36;;;;;;;0.70;0.70;;;5.60;99.90;;;;;;5075893;28;20171;-78
2022/04/29 00:52:02;;;;;;;0.73;0.73;;;5.60;99.90;;;;;;5077453;28;20210;-78
2022/04/29 00:54:31;;;;;;;0.60;0.60;;;5.50;99.90;;;;;;5076888;28;20171;-79
2022/04/29 00:56:58;;;;;;;0.70;0.70;;;5.30;99.90;;;;;;5078635;28;20188;-79
2022/04/29 00:59:26;;;;;;;0.70;0.70;;;5.30;99.90;;;;;;5078385;28;20198;-79
2022/04/29 01:01:55;;;;;;;0.80;0.80;;;5.20;99.90;;;;;;5077553;28;20206;-78
2022/04/29 01:04:37;;;;;;;0.77;0.77;;;5.20;99.90;;;;;;5076484;28;20267;-78
2022/04/29 01:07:03;;;;;;;0.90;0.90;;;5.10;99.90;;;;;;5076447;28;20204;-76
2022/04/29 01:09:29;;;;;;;0.80;0.80;;;5.20;99.90;;;;;;5074997;28;20635;-77
2022/04/29 01:11:55;;;;;;;0.80;0.80;;;5.00;99.90;;;;;;5077683;28;20229;-78
2022/04/29 01:14:21;;;;;;;0.80;0.80;;;4.90;99.90;;;;;;5079756;28;20662;-77
2022/04/29 01:16:46;;;;;;;0.80;0.80;;;5.00;99.90;;;;;;5088192;28;20605;-77
2022/04/29 01:19:12;;;;;;;0.80;0.80;;;4.90;99.90;;;;;;5079292;28;20197;-77
2022/04/29 01:21:37;;;;;;;0.80;0.80;;;4.90;99.90;;;;;;5083784;28;20217;-77
2022/04/29 01:24:03;;;;;;;0.80;0.80;;;5.00;99.90;;;;;;5085652;28;20536;-77
2022/04/29 01:26:29;;;;;;;0.70;0.70;;;4.90;99.90;;;;;;5081677;28;20174;-79
2022/04/29 01:28:57;;;;;;;0.80;0.80;;;5.00;99.90;;;;;;5082184;28;20170;-80
2022/04/29 01:31:23;;;;;;;0.80;0.80;;;5.00;99.90;;;;;;5080227;28;20238;-81
2022/04/29 01:33:50;;;;;;;0.80;0.80;;;5.00;99.90;;;;;;5082905;28;20220;-78
2022/04/29 01:36:16;;;;;;;0.80;0.80;;;5.00;99.90;;;;;;5081525;28;20209;-77
2022/04/29 01:38:42;;;;;;;0.70;0.70;;;5.00;99.90;;;;;;5080632;28;20697;-78
2022/04/29 01:41:08;;;;;;;0.70;0.70;;;5.00;99.90;;;;;;5079916;28;20198;-78
2022/04/29 01:43:34;;;;;;;0.80;0.80;;;5.00;99.90;;;;;;5081708;28;20250;-78
2022/04/29 01:46:01;;;;;;;0.70;0.70;;;5.00;99.90;;;;;;5082618;28;20179;-78
2022/04/29 01:48:26;;;;;;;0.80;0.80;;;5.00;99.90;;;;;;5082248;28;20171;-78
2022/04/29 01:50:52;;;;;;;0.80;0.80;;;4.90;99.90;;;;;;5081802;28;20270;-77
2022/04/29 01:53:19;;;;;;;0.83;0.83;;;4.70;99.90;;;;;;5082794;28;20239;-77
2022/04/29 01:55:45;;;;;;;0.80;0.80;;;4.70;99.90;;;;;;5081071;28;20182;-77
2022/04/29 01:58:10;;;;;;;0.80;0.80;;;4.70;99.90;;;;;;5082159;28;20537;-80
2022/04/29 02:00:36;;;;;;;0.80;0.80;;;4.70;99.90;;;;;;5085173;28;20210;-79
2022/04/29 02:03:02;;;;;;;0.80;0.80;;;4.70;99.90;;;;;;5084567;28;20533;-80
2022/04/29 02:05:27;;;;;;;0.80;0.80;;;4.60;99.90;;;;;;5084813;28;20189;-79
2022/04/29 02:07:53;;;;;;;0.90;0.90;;;4.60;99.90;;;;;;5081455;28;20178;-77
2022/04/29 02:10:20;;;;;;;0.80;0.80;;;4.70;99.90;;;;;;5079782;28;20195;-78
2022/04/29 02:12:46;;;;;;;0.70;0.70;;;4.70;99.90;;;;;;5082291;28;20222;-79
2022/04/29 02:15:12;;;;;;;0.80;0.80;;;4.70;99.90;;;;;;5080256;28;20262;-78
2022/04/29 02:17:38;;;;;;;0.80;0.80;;;4.40;99.90;;;;;;5081090;28;20663;-76
2022/04/29 02:20:04;;;;;;;0.70;0.70;;;4.50;99.90;;;;;;5080376;28;20228;-80
2022/04/29 02:22:30;;;;;;;0.77;0.77;;;4.60;99.90;;;;;;5081076;28;20178;-79
2022/04/29 02:24:57;;;;;;;0.80;0.80;;;4.60;99.90;;;;;;5081927;28;20186;-79
2022/04/29 02:27:22;;;;;;;0.80;0.80;;;4.60;99.90;;;;;;5078301;28;20174;-78
2022/04/29 02:29:48;;;;;;;0.80;0.80;;;4.60;99.90;;;;;;5079942;28;20193;-78
2022/04/29 02:32:14;;;;;;;0.90;0.90;;;4.50;99.90;;;;;;5081947;28;20214;-79
2022/04/29 02:34:41;;;;;;;0.80;0.80;;;4.40;99.90;;;;;;5081719;28;20631;-80
2022/04/29 02:37:07;;;;;;;0.80;0.80;;;4.40;99.90;;;;;;5080449;28;20758;-78
2022/04/29 02:39:32;;;;;;;0.80;0.80;;;4.40;99.90;;;;;;5079645;28;20182;-78
2022/04/29 02:41:58;;;;;;;0.80;0.80;;;4.30;99.90;;;;;;5080332;28;20198;-79
2022/04/29 02:44:24;;;;;;;0.70;0.70;;;4.20;99.90;;;;;;5079927;28;20205;-79
2022/04/29 02:47:07;;;;;;;0.80;0.80;;;4.20;99.90;;;;;;5079762;28;20205;-78
2022/04/29 02:49:34;;;;;;;0.70;0.70;;;4.20;99.90;;;;;;5079586;28;20193;-77
2022/04/29 02:51:59;;;;;;;0.80;0.80;;;4.00;99.90;;;;;;5079600;28;20218;-77
2022/04/29 02:54:25;;;;;;;0.80;0.80;;;4.00;99.90;;;;;;5080863;28;20184;-77
2022/04/29 02:56:51;;;;;;;0.83;0.83;;;4.10;99.90;;;;;;5079356;28;20257;-77
2022/04/29 02:59:18;;;;;;;0.90;0.90;;;4.10;99.90;;;;;;5077722;28;20174;-78
2022/04/29 03:01:44;;;;;;;0.90;0.90;;;4.10;99.90;;;;;;5186948;22;20272;-79
2022/04/29 03:04:09;;;;;;;0.80;0.80;;;3.90;99.90;;;;;;5055327;28;20187;-78
2022/04/29 03:06:35;;;;;;;0.80;0.80;;;4.00;99.90;;;;;;5052848;28;20562;-78
2022/04/29 03:09:00;;;;;;;0.90;0.90;;;3.90;99.90;;;;;;5056061;28;20621;-77
2022/04/29 03:11:26;;;;;;;0.90;0.90;;;3.90;99.90;;;;;;5058374;28;20338;-77
2022/04/29 03:13:51;;;;;;;0.80;0.80;;;3.90;99.90;;;;;;5060706;28;20183;-77
2022/04/29 03:16:17;;;;;;;0.80;0.80;;;3.90;99.90;;;;;;5061052;28;20644;-77
2022/04/29 03:18:44;;;;;;;0.80;0.80;;;4.00;99.90;;;;;;5054219;28;20178;-77
2022/04/29 03:21:11;;;;;;;0.80;0.80;;;4.00;99.90;;;;;;5053254;28;20191;-77
2022/04/29 03:23:37;;;;;;;0.83;0.83;;;3.90;99.90;;;;;;5052115;28;20179;-76
2022/04/29 03:26:04;;;;;;;0.80;0.80;;;4.00;99.90;;;;;;5050527;28;20182;-76
2022/04/29 03:28:30;;;;;;;0.90;0.90;;;3.80;99.90;;;;;;5051854;28;20578;-77
2022/04/29 03:30:56;;;;;;;0.80;0.80;;;3.80;99.90;;;;;;5051300;28;20191;-77
2022/04/29 03:33:21;;;;;;;0.90;0.90;;;4.00;99.90;;;;;;5052436;28;20186;-77
2022/04/29 03:35:50;;;;;;;0.80;0.80;;;4.00;99.90;;;;;;5051126;28;20253;-76
2022/04/29 03:38:15;;;;;;;1.00;1.00;;;3.90;99.90;;;;;;5051879;28;20179;-76
2022/04/29 03:40:41;;;;;;;0.80;0.80;;;3.90;99.90;;;;;;5051094;28;20299;-76
2022/04/29 03:43:07;;;;;;;0.77;0.77;;;3.90;99.90;;;;;;5051564;28;20677;-77
2022/04/29 03:45:33;;;;;;;0.80;0.80;;;3.90;99.90;;;;;;5051971;28;20183;-76
2022/04/29 03:47:59;;;;;;;0.80;0.80;;;4.00;99.90;;;;;;5051582;28;20225;-76
2022/04/29 03:50:25;;;;;;;0.80;0.80;;;3.90;99.90;;;;;;5050937;28;20253;-76
2022/04/29 03:52:59;;;;;;;0.80;0.80;;;3.80;99.90;;;;;;5051339;28;20290;-76
2022/04/29 03:55:27;;;;;;;0.80;0.80;;;3.90;99.90;;;;;;5051341;28;20190;-76
2022/04/29 03:57:53;;;;;;;0.87;0.87;;;3.90;99.90;;;;;;5051464;28;20182;-76
2022/04/29 04:00:21;;;;;;;0.80;0.80;;;3.90;99.90;;;;;;5051770;28;20195;-76
2022/04/29 04:02:46;;;;;;;0.70;0.70;;;3.90;99.90;;;;;;5052273;28;20191;-77
2022/04/29 04:05:12;;;;;;;0.90;0.90;;;4.00;99.90;;;;;;5052380;28;20175;-77
2022/04/29 04:07:38;;;;;;;0.70;0.70;;;3.90;99.90;;;;;;5052274;28;20175;-76
2022/04/29 04:10:04;;;;;;;0.90;0.90;;;3.90;99.90;;;;;;5050614;28;20182;-76
2022/04/29 04:12:56;;;;;;;0.80;0.80;;;4.00;99.90;;;;;;5051662;28;20215;-76
2022/04/29 04:15:26;;;;;;;0.80;0.80;;;4.00;99.90;;;;;;5046628;28;20195;-76
2022/04/29 04:17:51;;;;;;;0.80;0.80;;;4.00;99.90;;;;;;5051333;28;20275;-76
2022/04/29 04:20:17;;;;;;;0.80;0.80;;;3.90;99.90;;;;;;5050693;28;20699;-77
2022/04/29 04:22:43;;;;;;;0.80;0.80;;;4.00;99.90;;;;;;5050955;28;20582;-77
2022/04/29 04:25:11;;;;;;;0.80;0.80;;;4.00;99.90;;;;;;5051348;28;20179;-77
2022/04/29 04:27:37;;;;;;;0.80;0.80;;;3.90;99.90;;;;;;5052370;28;20261;-77
2022/04/29 04:30:04;;;;;;;0.80;0.80;;;4.00;99.90;;;;;;5050930;28;20179;-77
2022/04/29 04:32:34;;;;;;;0.80;0.80;;;4.10;99.90;;;;;;5051424;28;20225;-77
2022/04/29 04:35:00;;;;;;;0.70;0.70;;;4.40;99.90;;;;;;5053048;28;20179;-77
2022/04/29 04:37:26;;;;;;;0.80;0.80;;;4.70;99.90;;;;;;5052428;28;20210;-76
2022/04/29 04:39:53;;;;;;;0.80;0.80;;;4.60;99.90;;;;;;5050755;28;20265;-77
2022/04/29 04:42:19;;;;;;;0.80;0.80;;;4.80;99.90;;;;;;5050842;28;20227;-76
2022/04/29 04:44:49;;;;;;;0.70;0.70;;;4.80;99.90;;;;;;5051023;28;20172;-76
2022/04/29 04:47:15;;;;;;;0.90;0.90;;;5.10;99.90;;;;;;5053801;28;20175;-76
2022/04/29 04:49:41;;;;;;;0.70;0.70;;;5.30;99.90;;;;;;5055658;28;20263;-76
2022/04/29 04:52:08;;;;;;;0.70;0.70;;;5.10;99.90;;;;;;5056546;28;20773;-76
2022/04/29 04:54:34;;;;;;;0.80;0.80;;;5.00;99.90;;;;;;5056762;28;20177;-76
2022/04/29 04:57:00;;;;;;;0.80;0.80;;;4.80;99.90;;;;;;5057511;28;20255;-76
2022/04/29 04:59:26;;;;;;;0.73;0.73;;;4.80;99.90;;;;;;5055894;28;20183;-77
2022/04/29 05:01:51;;;;;;;0.73;0.73;;;4.90;99.90;;;;;;5054601;28;20210;-77
2022/04/29 05:04:17;;;;;;;0.70;0.70;;;5.10;99.90;;;;;;5054878;28;20203;-78
2022/04/29 05:06:42;;;;;;;0.70;0.70;;;5.30;99.90;;;;;;5052428;28;20179;-77
2022/04/29 05:09:09;;;;;;;0.80;0.80;;;5.50;99.90;;;;;;5053378;28;20175;-77
2022/04/29 05:11:34;;;;;;;0.70;0.70;;;5.60;99.90;;;;;;5053081;28;20222;-77
2022/04/29 05:14:00;;;;;;;0.80;0.80;;;5.70;99.90;;;;;;5054367;28;20537;-77
2022/04/29 05:16:26;;;;;;;0.80;0.80;;;5.80;99.90;;;;;;5054192;28;20220;-77
2022/04/29 05:18:52;;;;;;;0.73;0.73;;;5.70;99.90;;;;;;5053971;28;20175;-78
2022/04/29 05:21:18;;;;;;;0.70;0.70;;;5.90;99.90;;;;;;5053164;28;20202;-77
2022/04/29 05:23:44;;;;;;;0.70;0.70;;;5.90;99.90;;;;;;5054107;28;20551;-77
2022/04/29 05:26:09;;;;;;;0.70;0.70;;;5.90;99.90;;;;;;5052574;28;20187;-76
2022/04/29 05:28:35;;;;;;;0.80;0.80;;;5.80;99.90;;;;;;5054020;28;20187;-77
2022/04/29 05:31:02;;;;;;;0.70;0.70;;;5.90;99.90;;;;;;5053809;28;20493;-77
2022/04/29 05:33:28;;;;;;;0.70;0.70;;;6.30;99.90;;;;;;5054265;28;20183;-76
2022/04/29 05:35:55;;;;;;;0.70;0.70;;;6.40;99.90;;;;;;5053802;28;20178;-77
2022/04/29 05:38:21;;;;;;;0.77;0.77;;;6.60;99.90;;;;;;5053992;28;20175;-77
2022/04/29 05:43:30;;;;;;;0.80;0.80;;;6.50;99.90;;;;;;5054303;28;20192;-77
2022/04/29 05:45:56;;;;;;;0.80;0.80;;;6.40;99.90;;;;;;5053763;28;20540;-76
2022/04/29 05:48:22;;;;;;;0.70;0.70;;;6.40;99.90;;;;;;5053755;28;20179;-76
2022/04/29 05:50:48;;;;;;;0.70;0.70;;;6.60;99.90;;;;;;5053311;28;20199;-76
2022/04/29 05:53:15;;;;;;;0.70;0.70;;;6.60;99.90;;;;;;5053876;28;20218;-76
2022/04/29 05:55:40;;;;;;;0.70;0.70;;;6.80;99.90;;;;;;5052906;28;20199;-76
2022/04/29 05:58:06;;;;;;;0.70;0.70;;;6.70;99.90;;;;;;5051371;28;20210;-76
2022/04/29 06:00:31;;;;;;;0.80;0.80;;;6.70;99.90;;;;;;5052732;28;20199;-76
2022/04/29 06:02:57;;;;;;;0.70;0.70;;;6.80;99.90;;;;;;5053289;28;20595;-76
2022/04/29 06:05:23;;;;;;;0.80;0.80;;;6.90;99.90;;;;;;5053207;28;20171;-77
2022/04/29 06:07:48;;;;;;;0.63;0.63;;;7.10;99.90;;;;;;5052892;28;20663;-76
2022/04/29 06:10:14;;;;;;;0.70;0.70;;;7.20;99.90;;;;;;5052781;28;20171;-76
2022/04/29 06:12:41;;;;;;;0.80;0.80;;;7.20;99.90;;;;;;5053109;28;20290;-76
2022/04/29 06:15:12;;;;;;;0.60;0.60;;;7.20;99.90;;;;;;5053321;28;20171;-77
2022/04/29 06:17:38;;;;;;;0.60;0.60;;;7.20;99.90;;;;;;5053203;28;20620;-76
2022/04/29 06:20:04;;;;;;;0.60;0.60;;;7.50;99.90;;;;;;5052528;28;20174;-76
2022/04/29 06:22:29;;;;;;;0.70;0.70;;;7.90;88.80;;;;;;5052937;28;20261;-77
2022/04/29 06:24:55;;;;;;;0.70;0.70;;;8.40;1.00;;;;;;5053270;28;20187;-77
2022/04/29 06:27:21;;;;;;;0.57;0.57;;;8.70;1.00;;;;;;5053077;28;20194;-74
2022/04/29 06:29:46;;;;;;;0.73;0.73;;;9.20;1.00;;;;;;5052174;28;20179;-73
2022/04/29 06:32:12;;;;;;;0.70;0.70;;;9.70;1.00;;;;;;5052074;28;20238;-74
2022/04/29 06:34:38;;;;;;;0.70;0.70;;;10.10;1.00;;;;;;5052429;28;20229;-73
2022/04/29 06:37:03;;;;;;;0.57;0.57;;;10.10;1.00;;;;;;5052410;28;20690;-75
2022/04/29 06:39:29;;;;;;;0.50;0.50;;;10.10;99.90;;;;;;5052412;28;20183;-76
2022/04/29 06:41:54;;;;;;;0.60;0.60;;;10.20;1.00;;;;;;5052031;28;20191;-76
2022/04/29 06:44:20;;;;;;;0.60;0.60;;;10.00;30.10;;;;;;5052211;28;20286;-76
2022/04/29 06:46:45;;;;;;;0.50;0.50;;;9.70;99.90;;;;;;5052354;28;20194;-76
2022/04/29 06:49:11;;;;;;;0.70;0.70;;;9.70;99.90;;;;;;5052136;28;20175;-77
2022/04/29 06:51:37;;;;;;;0.60;0.60;;;10.10;1.00;;;;;;5051986;28;20215;-76
2022/04/29 06:54:03;;;;;;;0.50;0.50;;;10.50;1.00;;;;;;5052612;28;20628;-77
2022/04/29 06:56:29;;;;;;;0.70;0.70;;;9.90;1.00;;;;;;5052449;28;20183;-77
2022/04/29 06:58:54;;;;;;;0.60;0.60;;;10.30;99.90;;;;;;5051792;28;20194;-77
2022/04/29 07:01:20;;;;;;;0.60;0.60;;;10.40;1.00;;;;;;5051929;28;20246;-77
2022/04/29 07:03:45;;;;;;;0.60;0.60;;;10.40;1.00;;;;;;5052236;28;20641;-74
2022/04/29 07:06:11;;;;;;;0.60;0.60;;;11.00;1.00;;;;;;5052271;28;20186;-77
2022/04/29 07:08:36;;;;;;;0.50;0.50;;;11.30;1.00;;;;;;5052131;28;20182;-76
2022/04/29 07:11:02;;;;;;;0.50;0.50;;;11.40;1.00;;;;;;5050629;28;20221;-76
2022/04/29 07:13:28;;;;;;;0.50;0.50;;;11.60;1.00;;;;;;5051808;28;20174;-77
2022/04/29 07:15:54;;;;;;;0.50;0.50;;;11.60;1.00;;;;;;5051684;28;20183;-76
2022/04/29 07:18:20;;;;;;;0.43;0.43;;;11.80;99.10;;;;;;5052184;28;20603;-77
2022/04/29 07:20:45;;;;;;;0.53;0.53;;;11.80;91.40;;;;;;5051582;28;20527;-77
2022/04/29 07:23:11;;;;;;;0.50;0.50;;;12.30;1.00;;;;;;5049855;28;20183;-77
2022/04/29 07:25:36;;;;;;;0.70;0.70;;;12.10;1.00;;;;;;5051870;28;20186;-76
2022/04/29 07:28:02;;;;;;;0.60;0.60;;;12.20;99.90;;;;;;5051627;28;20186;-76
2022/04/29 07:30:28;;;;;;;0.50;0.50;;;12.80;1.00;;;;;;5051672;28;20249;-76
2022/04/29 07:32:54;;;;;;;0.40;0.40;;;12.70;99.90;;;;;;5052295;28;20751;-77
2022/04/29 07:43:34;;;;;;;0.50;0.50;;;13.20;1.00;;;;;;5051904;28;20174;-77
2022/04/29 07:46:01;;;;;;;0.50;0.50;;;13.10;99.90;;;;;;5051462;28;20258;-76
2022/04/29 07:48:26;;;;;;;0.47;0.47;;;13.20;99.90;;;;;;5052857;28;20230;-78
2022/04/29 07:50:52;;;;;;;0.40;0.40;;;13.60;99.90;;;;;;5051482;28;20227;-78
2022/04/29 07:53:18;;;;;;;0.40;0.40;;;13.80;99.90;;;;;;5051532;28;20175;-77
2022/04/29 07:55:44;;;;;;;0.40;0.40;;;14.50;37.70;;;;;;5051736;28;20555;-77
2022/04/29 07:58:10;;;;;;;0.40;0.40;;;14.70;1.00;;;;;;5051448;28;20182;-76
2022/04/29 08:00:37;;;;;;;0.40;0.40;;;15.10;1.00;;;;;;5050822;28;20614;-75
2022/04/29 08:03:03;;;;;;;0.40;0.40;;;15.20;1.00;;;;;;5051239;28;20199;-75
2022/04/29 08:05:29;;;;;;;0.33;0.33;;;15.80;1.00;;;;;;5051264;28;20203;-75
2022/04/29 08:07:59;;;;;;;0.30;0.30;;;15.60;1.00;;;;;;5051083;28;20601;-75
2022/04/29 08:10:25;;;;;;;0.40;0.40;;;15.50;1.00;;;;;;5050832;28;20199;-75
2022/04/29 08:12:51;;;;;;;0.30;0.30;;;15.80;1.00;;;;;;5051116;28;20222;-75
2022/04/29 08:15:16;;;;;;;0.40;0.40;;;15.80;1.00;;;;;;5051079;28;20171;-77
2022/04/29 08:17:42;;;;;;;0.40;0.40;;;15.70;1.00;;;;;;5051150;28;20357;-76
2022/04/29 08:20:08;;;;;;;0.40;0.40;;;15.70;1.00;;;;;;5050382;28;20214;-76
2022/04/29 08:22:34;;;;;;;0.40;0.40;;;15.40;1.00;;;;;;5053289;28;20175;-77
2022/04/29 08:25:00;;;;;;;0.40;0.40;;;15.40;1.00;;;;;;5055594;28;20190;-77
2022/04/29 08:27:28;;;;;;;0.30;0.30;;;15.30;1.00;;;;;;5055482;28;20179;-76
2022/04/29 08:29:53;;;;;;;0.40;0.40;;;15.30;1.00;;;;;;5054847;28;20239;-77
2022/04/29 08:32:19;;;;;;;0.40;0.40;;;15.40;1.00;;;;;;5054860;28;20218;-76
2022/04/29 08:34:45;;;;;;;0.40;0.40;;;15.40;1.00;;;;;;5054851;28;20540;-76
2022/04/29 08:37:10;;;;;;;0.40;0.40;;;15.70;1.00;;;;;;5054810;28;20194;-76
2022/04/29 08:39:36;;;;;;;0.40;0.40;;;16.20;1.00;;;;;;5054269;28;20254;-76
2022/04/29 08:42:03;;;;;;;0.30;0.30;;;16.60;1.00;;;;;;5054869;28;20195;-77
2022/04/29 08:44:30;;;;;;;0.40;0.40;;;17.10;1.00;;;;;;5053579;28;20488;-77
2022/04/29 08:46:56;;;;;;;0.33;0.33;;;17.50;1.00;;;;;;5053393;28;20179;-77
2022/04/29 08:49:24;;;;;;;0.30;0.30;;;18.10;1.00;;;;;;5053239;28;20535;-77
2022/04/29 08:51:50;;;;;;;0.30;0.30;;;18.90;1.00;;;;;;5054448;28;20286;-77
2022/04/29 08:58:36;;;;;;;0.40;0.40;;;19.80;1.00;;;;;;5054394;28;20175;-76
2022/04/29 08:59:57;;;;;;;0.47;0.47;;;20.00;1.00;;;;;;5053031;28;20181;-77
2022/04/29 09:02:23;;;;;;;0.40;0.40;;;19.40;1.00;;;;;;5082378;22;20218;-77
2022/04/29 09:04:49;;;;;;;0.40;0.40;;;19.10;1.00;;;;;;5077852;28;20228;-77
2022/04/29 09:07:15;;;;;;;0.40;0.40;;;19.10;1.00;;;;;;5078183;28;20178;-77
2022/04/29 09:09:41;;;;;;;0.30;0.30;;;19.70;1.00;;;;;;5075569;28;20251;-77
2022/04/29 09:12:16;;;;;;;0.40;0.40;;;20.10;1.00;;;;;;5075091;28;20210;-77
2022/04/29 09:14:42;;;;;;;0.40;0.40;;;20.10;1.00;;;;;;5076171;28;20665;-77
2022/04/29 09:17:28;;;;;;;0.40;0.40;;;20.40;1.00;;;;;;5076168;28;20202;-76
2022/04/29 09:19:54;;;;;;;0.40;0.40;;;20.10;1.00;;;;;;5074277;28;20186;-75
2022/04/29 09:22:19;;;;;;;0.30;0.30;;;19.80;1.00;;;;;;5074365;28;20199;-74
2022/04/29 09:25:00;;;;;;;0.30;0.30;;;19.60;1.00;;;;;;5074441;28;20171;-75
2022/04/29 09:27:25;;;;;;;0.40;0.40;;;18.90;1.00;;;;;;5074709;28;20180;-75
2022/04/29 09:30:00;;;;;;;0.30;0.30;;;19.20;1.00;;;;;;5073746;28;20174;-75
2022/04/29 09:32:47;;;;;;;0.50;0.50;;;20.00;1.00;;;;;;5074212;28;20647;-75
2022/04/29 09:35:13;;;;;;;0.30;0.30;;;19.50;1.00;;;;;;5073150;28;20175;-76
2022/04/29 09:39:26;;;;;;;0.40;0.40;;;20.40;1.00;;;;;;5056906;28;20183;-76
2022/04/29 09:40:37;;;;;;;0.30;0.30;;;19.30;1.00;;;;;;5053471;28;20217;-75
2022/04/29 09:43:03;;;;;;;0.40;0.40;;;19.00;1.00;;;;;;5054239;28;20187;-75
2022/04/29 09:45:29;;;;;;;0.40;0.40;;;19.50;1.00;;;;;;5054133;28;20262;-74
2022/04/29 09:47:58;;;;;;;0.37;0.37;;;19.70;1.00;;;;;;5054047;28;20644;-76
2022/04/29 09:50:52;;;;;;;0.40;0.40;;;20.10;1.00;;;;;;5053621;28;20313;-75
2022/04/29 09:53:21;;;;;;;0.33;0.33;;;20.20;1.00;;;;;;5057346;28;20294;-74
2022/04/29 09:56:08;;;;;;;0.40;0.40;;;20.00;1.00;;;;;;5053871;28;20713;-74
2022/04/29 09:58:34;;;;;;;0.40;0.40;;;20.20;1.00;;;;;;5053751;28;20635;-76
2022/04/29 10:01:02;;;;;;;0.40;0.40;;;20.00;1.00;;;;;;5053488;28;20274;-77
2022/04/29 10:03:28;;;;;;;0.40;0.40;;;20.00;1.00;;;;;;5053772;28;20631;-76
2022/04/29 10:05:55;;;;;;;0.40;0.40;;;19.60;1.00;;;;;;5054112;28;20172;-75
2022/04/29 10:08:28;;;;;;;0.30;0.30;;;19.70;1.00;;;;;;5053680;28;20254;-75
2022/04/29 10:10:55;;;;;;;0.33;0.33;;;20.10;1.00;;;;;;5052885;28;20516;-76
2022/04/29 10:13:23;;;;;;;0.50;0.50;;;19.70;1.00;;;;;;5053859;28;20242;-75
2022/04/29 10:15:51;;;;;;;0.30;0.30;;;19.20;1.00;;;;;;5053503;28;20540;-74
2022/04/29 10:21:15;;;;;;;0.30;0.30;;;19.30;1.00;;;;;;5073211;28;20694;-76
2022/04/29 10:23:42;;;;;;;0.50;0.50;;;18.70;1.00;;;;;;5072647;28;20635;-75
2022/04/29 10:26:09;;;;;;;0.40;0.40;;;18.50;1.00;;;;;;5070755;28;20171;-75
2022/04/29 10:28:35;;;;;;;0.40;0.40;;;18.80;1.00;;;;;;5053650;28;20187;-74
2022/04/29 10:31:03;;;;;;;0.30;0.30;;;18.90;1.00;;;;;;5052562;28;20191;-75
2022/04/29 10:33:29;;;;;;;0.40;0.40;;;18.60;1.00;;;;;;5052934;28;20182;-75
2022/04/29 10:36:04;;;;;;;0.40;0.40;;;18.60;1.00;;;;;;5053118;28;20487;-77
2022/04/29 10:38:35;;;;;;;0.40;0.40;;;18.60;1.00;;;;;;5053186;28;20185;-76
2022/04/29 10:41:25;;;;;;;0.40;0.40;;;18.90;1.00;;;;;;5052702;28;20199;-76
2022/04/29 10:43:50;;;;;;;0.40;0.40;;;19.10;1.00;;;;;;5052992;28;20178;-75
2022/04/29 10:46:22;;;;;;;0.40;0.40;;;19.30;1.00;;;;;;5052372;28;20551;-76
2022/04/29 10:48:52;;;;;;;0.40;0.40;;;19.20;1.00;;;;;;5052910;28;20175;-76
2022/04/29 10:51:41;;;;;;;0.30;0.30;;;19.00;1.00;;;;;;5052820;28;20241;-76
2022/04/29 10:54:07;;;;;;;0.30;0.30;;;19.30;1.00;;;;;;5052798;28;20183;-77
2022/04/29 10:56:33;;;;;;;0.40;0.40;;;19.70;1.00;;;;;;5052831;28;20648;-76
2022/04/29 10:59:05;;;;;;;0.50;0.50;;;20.40;1.00;;;;;;5052394;28;20203;-77
2022/04/29 11:01:34;;;;;;;0.40;0.40;;;19.80;1.00;;;;;;5052610;28;20203;-76
2022/04/29 11:04:01;;;;;;;0.40;0.40;;;20.20;1.00;;;;;;5052540;28;20190;-76
2022/04/29 11:06:37;;;;;;;0.30;0.30;;;20.00;1.00;;;;;;5052885;28;20185;-77
2022/04/29 11:09:25;;;;;;;0.40;0.40;;;19.40;1.00;;;;;;5051810;28;20181;-75
2022/04/29 11:11:51;;;;;;;0.50;0.50;;;19.30;1.00;;;;;;5052437;28;20225;-77
2022/04/29 11:14:17;;;;;;;0.40;0.40;;;19.70;1.00;;;;;;5052536;28;20171;-76
2022/04/29 11:17:08;;;;;;;0.40;0.40;;;19.80;1.00;;;;;;5053131;28;20171;-77
2022/04/29 11:19:35;;;;;;;0.40;0.40;;;20.80;1.00;;;;;;5051947;28;20228;-76
2022/04/29 11:24:52;;;;;;;0.33;0.33;;;20.90;1.00;;;;;;5053176;28;20211;-77
2022/04/29 11:27:33;;;;;;;0.30;0.30;;;21.30;1.00;;;;;;5053350;28;20183;-77
2022/04/29 11:30:02;;;;;;;0.30;0.30;;;21.70;1.00;;;;;;5052453;28;20171;-77
2022/04/29 11:32:29;;;;;;;0.30;0.30;;;20.70;1.00;;;;;;5052425;28;20215;-76
2022/04/29 11:34:56;;;;;;;0.50;0.50;;;20.50;1.00;;;;;;5052416;28;20175;-76
2022/04/29 11:37:27;;;;;;;0.40;0.40;;;20.00;1.00;;;;;;5052318;28;20179;-77
2022/04/29 11:39:55;;;;;;;0.40;0.40;;;20.50;1.00;;;;;;5051916;28;20179;-76
2022/04/29 11:42:21;;;;;;;0.40;0.40;;;20.70;1.00;;;;;;5051992;28;20239;-77
2022/04/29 11:44:49;;;;;;;0.40;0.40;;;21.20;1.00;;;;;;5052340;28;20186;-76
2022/04/29 11:47:16;;;;;;;0.40;0.40;;;21.20;1.00;;;;;;5056387;28;20530;-76
2022/04/29 11:49:43;;;;;;;0.40;0.40;;;20.40;1.00;;;;;;5051860;28;20179;-76
2022/04/29 11:52:30;;;;;;;0.30;0.30;;;20.20;1.00;;;;;;5051661;28;20731;-75
2022/04/29 11:55:01;;;;;;;0.40;0.40;;;19.00;1.00;;;;;;5051742;28;20203;-76
2022/04/29 11:57:30;;;;;;;0.40;0.40;;;19.40;1.00;;;;;;5056170;28;20178;-75
2022/04/29 11:59:56;;;;;;;0.40;0.40;;;19.70;1.00;;;;;;5058856;28;20186;-75
2022/04/29 12:02:24;;;;;;;0.50;0.50;;;19.60;1.00;;;;;;5061631;28;20206;-75
2022/04/29 12:05:04;;;;;;;0.50;0.50;;;19.50;1.00;;;;;;5060085;28;20193;-76
2022/04/29 12:07:40;;;;;;;0.40;0.40;;;19.70;1.00;;;;;;5053869;28;20182;-74
2022/04/29 12:10:28;;;;;;;0.50;0.50;;;19.50;1.00;;;;;;5051008;28;20178;-75
2022/04/29 12:12:57;;;;;;;0.40;0.40;;;19.40;1.00;;;;;;5051502;28;20556;-74
2022/04/29 12:15:30;;;;;;;0.40;0.40;;;19.20;1.00;;;;;;5051548;28;20175;-75
2022/04/29 12:18:01;;;;;;;0.40;0.40;;;19.50;1.00;;;;;;5051411;28;20183;-73
2022/04/29 12:20:28;;;;;;;0.40;0.40;;;19.70;1.00;;;;;;5050468;28;20729;-74
2022/04/29 12:22:54;;;;;;;0.40;0.40;;;19.30;1.00;;;;;;5056430;28;20175;-74
2022/04/29 12:25:34;;;;;;;0.40;0.40;;;19.10;1.00;;;;;;5065374;28;20521;-74
2022/04/29 12:28:14;;;;;;;0.40;0.40;;;18.90;1.00;;;;;;5071268;28;20588;-74
2022/04/29 12:36:45;;;;;;;0.40;0.40;;;19.00;1.00;;;;;;5071224;28;20176;-75
2022/04/29 12:39:11;;;;;;;0.30;0.30;;;18.80;1.00;;;;;;5070639;28;20467;-75
2022/04/29 12:41:37;;;;;;;0.40;0.40;;;18.90;1.00;;;;;;5071378;28;20194;-75
2022/04/29 12:44:08;;;;;;;0.40;0.40;;;19.20;1.00;;;;;;5071055;28;20538;-75
2022/04/29 12:46:34;;;;;;;0.40;0.40;;;19.20;1.00;;;;;;5071281;28;20270;-74
2022/04/29 12:48:59;;;;;;;0.40;0.40;;;19.50;1.00;;;;;;5070577;28;20178;-75
2022/04/29 12:51:28;;;;;;;0.30;0.30;;;19.70;1.00;;;;;;5071135;28;20207;-76
2022/04/29 12:53:54;;;;;;;0.40;0.40;;;19.90;1.00;;;;;;5071091;28;20193;-76
2022/04/29 12:56:34;;;;;;;0.30;0.30;;;20.20;1.00;;;;;;5059365;28;20409;-76
2022/04/29 12:59:04;;;;;;;0.40;0.40;;;20.80;1.00;;;;;;5057161;28;20274;-76
2022/04/29 13:01:38;;;;;;;0.40;0.40;;;20.50;1.00;;;;;;5060298;28;20199;-77
2022/04/29 13:04:04;;;;;;;0.40;0.40;;;20.80;1.00;;;;;;5058686;28;20714;-76
2022/04/29 13:06:29;;;;;;;0.40;0.40;;;20.50;1.00;;;;;;5060096;28;20178;-76
2022/04/29 13:08:56;;;;;;;0.50;0.50;;;20.20;1.00;;;;;;5063870;28;20163;-77
2022/04/29 13:11:23;;;;;;;0.30;0.30;;;20.00;1.00;;;;;;5063720;28;20195;-76
2022/04/29 13:13:52;;;;;;;0.40;0.40;;;20.10;1.00;;;;;;5065319;28;20186;-78
2022/04/29 13:16:20;;;;;;;0.40;0.40;;;20.40;1.00;;;;;;5066777;28;20699;-78
2022/04/29 13:18:46;;;;;;;0.40;0.40;;;20.40;1.00;;;;;;5066983;28;20175;-78
2022/04/29 13:21:13;;;;;;;0.40;0.40;;;20.30;1.00;;;;;;5064329;28;20625;-78
2022/04/29 13:23:41;;;;;;;0.30;0.30;;;20.10;1.00;;;;;;5061513;28;20168;-77
2022/04/29 13:26:07;;;;;;;0.40;0.40;;;19.90;1.00;;;;;;5064126;28;20190;-77
2022/04/29 13:28:34;;;;;;;0.30;0.30;;;20.30;1.00;;;;;;5064802;28;20171;-78